.
WxDataArchive / Data Records for 2009-06-28
2009-06-27 June 2009 2009-06-29

Data Records for Sunday, 28 June 2009

Time	Temp	Chill	HIndex	Humid	Dewpt	 Wind 	HiWind	WindDir	Rain 	Barom 
-----	----	-----	------	-----	-----	------	------	-------	-----	----- 
00:00	73.3	73.3	73.3	69	62.5	0	0	---	0.00	29.784 
00:05	73.2	73.2	73.2	70	62.8	0	0	---	0.00	29.784 
00:10	73.2	73.2	73.2	71	63.2	0	0	---	0.00	29.784 
00:15	73.0	73.0	73.0	71	63.0	0	0	---	0.00	29.792 
00:20	73.0	73.0	73.0	72	63.4	0	0	---	0.00	29.792 
00:25	73.0	73.0	73.0	71	63.0	0	0	---	0.00	29.792 
00:30	73.2	73.2	73.2	71	63.2	0	0	---	0.00	29.786 
00:35	73.2	73.2	73.2	71	63.2	0	0	---	0.00	29.786 
00:40	73.2	73.2	73.2	71	63.2	0	0	---	0.00	29.786 
00:45	73.2	73.2	73.2	71	63.2	0	0	---	0.00	29.782 
00:50	73.2	73.2	73.2	71	63.2	0	0	---	0.00	29.782 
00:55	73.0	73.0	73.0	71	63.0	0	0	---	0.00	29.782 
01:00	73.0	73.0	73.0	71	63.0	0	0	---	0.00	29.770 
01:05	73.0	73.0	73.0	72	63.4	0	0	---	0.00	29.770 
01:10	72.8	72.8	72.8	72	63.2	0	0	---	0.00	29.770 
01:15	72.7	72.7	72.7	73	63.5	0	0	---	0.00	29.759 
01:20	72.5	72.5	72.5	73	63.3	0	0	---	0.00	29.759 
01:25	72.7	72.7	72.7	72	63.1	0	1	135	0.00	29.759 
01:30	72.7	72.7	72.7	72	63.1	0	0	---	0.00	29.749 
01:35	72.8	72.8	72.8	72	63.2	0	0	---	0.00	29.749 
01:40	72.8	72.8	72.8	73	63.6	0	0	---	0.00	29.749 
01:45	72.7	72.7	72.7	73	63.5	0	0	---	0.00	29.744 
01:50	72.5	72.5	72.5	73	63.3	0	0	---	0.00	29.744 
01:55	72.3	72.3	72.3	74	63.5	0	0	---	0.00	29.744 
02:00	72.1	72.1	72.1	75	63.7	0	0	---	0.00	29.743 
02:05	71.8	71.8	71.8	76	63.8	0	0	---	0.00	29.743 
02:10	71.8	71.8	71.8	76	63.8	0	0	---	0.00	29.743 
02:15	71.6	71.6	71.6	77	64.0	0	0	---	0.00	29.747 
02:20	71.5	71.5	71.5	77	63.9	0	0	---	0.00	29.747 
02:25	71.5	71.5	71.5	77	63.9	0	0	---	0.00	29.747 
02:30	71.5	71.5	71.5	77	63.9	0	0	---	0.00	29.749 
02:35	71.5	71.5	71.5	77	63.9	0	0	---	0.00	29.749 
02:40	71.5	71.5	71.5	77	63.9	0	0	---	0.00	29.749 
02:45	71.6	71.6	71.6	77	64.0	0	0	---	0.00	29.745 
02:50	71.8	71.8	71.8	77	64.2	0	0	---	0.00	29.745 
02:55	72.0	72.0	72.0	77	64.4	0	0	---	0.00	29.745 
03:00	72.0	72.0	72.0	76	64.0	0	0	---	0.00	29.737 
03:05	72.1	72.1	72.1	77	64.5	0	0	---	0.00	29.737 
03:10	72.1	72.1	72.1	77	64.5	0	0	---	0.00	29.737 
03:15	72.1	72.1	72.1	77	64.5	0	0	---	0.00	29.734 
03:20	72.1	72.1	72.1	77	64.5	0	0	---	0.00	29.734 
03:25	72.1	72.1	72.1	77	64.5	0	0	---	0.00	29.734 
03:30	72.1	72.1	72.1	77	64.5	0	0	---	0.00	29.734 
03:35	72.1	72.1	72.1	77	64.5	0	0	---	0.00	29.734 
03:40	72.1	72.1	72.1	77	64.5	0	0	---	0.00	29.734 
03:45	72.1	72.1	72.1	77	64.5	0	0	---	0.00	29.726 
03:50	72.1	72.1	72.1	77	64.5	0	0	---	0.00	29.726 
03:55	72.1	72.1	72.1	77	64.5	0	0	---	0.00	29.726 
04:00	72.1	72.1	72.1	77	64.5	0	0	---	0.00	29.723 
04:05	72.1	72.1	72.1	75	63.7	0	0	---	0.00	29.723 
04:10	72.1	72.1	72.1	73	63.0	0	1	135	0.00	29.723 
04:15	72.5	72.5	72.5	71	62.5	0	1	135	0.00	29.724 
04:20	72.8	72.8	72.8	69	62.0	0	1	135	0.00	29.724 
04:25	73.3	73.3	73.3	66	61.2	1	2	158	0.00	29.724 
04:30	74.0	74.0	74.0	64	61.0	0	2	202	0.00	29.719 
04:35	74.4	74.4	74.4	64	61.4	0	1	202	0.00	29.719 
04:40	74.6	74.6	74.6	63	61.2	0	2	270	0.00	29.719 
04:45	74.9	74.9	74.9	62	61.0	0	2	270	0.00	29.717 
04:50	75.1	75.1	77.3	62	61.2	1	3	270	0.00	29.717 
04:55	75.3	75.3	77.5	62	61.4	1	2	270	0.00	29.717 
05:00	75.4	75.4	77.5	62	61.5	1	2	270	0.00	29.717 
05:05	75.3	75.3	77.5	62	61.4	1	2	270	0.00	29.717 
05:10	75.3	75.3	77.4	63	61.8	0	2	270	0.00	29.717 
05:15	75.1	75.1	77.2	64	62.1	0	1	270	0.00	29.707 
05:20	74.9	74.9	74.9	65	62.3	0	2	270	0.00	29.707 
05:25	74.7	74.7	74.7	65	62.1	0	2	270	0.00	29.707 
05:30	74.6	74.6	74.6	66	62.5	0	1	270	0.00	29.709 
05:35	74.4	74.4	74.4	66	62.3	0	1	270	0.00	29.709 
05:40	74.4	74.4	74.4	66	62.3	0	1	270	0.00	29.709 
05:45	74.4	74.4	74.4	66	62.3	0	1	270	0.00	29.707 
05:50	74.4	74.4	74.4	67	62.7	0	1	270	0.00	29.707 
05:55	74.2	74.2	74.2	68	62.9	0	2	270	0.00	29.707 
06:00	74.2	74.2	74.2	68	62.9	0	3	270	0.00	29.707 
06:05	74.2	74.2	74.2	69	63.4	0	2	270	0.00	29.707 
06:10	74.2	74.2	74.2	69	63.4	0	2	270	0.00	29.707 
06:15	74.4	74.4	74.4	70	64.0	0	2	270	0.00	29.705 
06:20	74.4	74.4	74.4	70	64.0	1	2	270	0.00	29.705 
06:25	74.4	74.4	74.4	71	64.4	1	2	270	0.00	29.705 
06:30	74.4	74.4	74.4	72	64.8	1	3	270	0.00	29.704 
06:35	74.6	74.6	74.6	72	65.0	1	3	248	0.00	29.704 
06:40	74.6	74.6	74.6	72	65.0	1	3	248	0.00	29.704 
06:45	74.6	74.6	74.6	73	65.4	0	2	248	0.00	29.696 
06:50	74.6	74.6	74.6	73	65.4	0	2	248	0.00	29.696 
06:55	74.6	74.6	74.6	73	65.4	0	2	248	0.00	29.696 
07:00	74.6	74.6	74.6	74	65.7	0	1	248	0.00	29.689 
07:05	74.6	74.6	74.6	74	65.7	0	2	248	0.00	29.689 
07:10	74.6	74.6	74.6	74	65.7	0	2	248	0.00	29.689 
07:15	74.6	74.6	74.6	75	66.1	0	2	202	0.00	29.688 
07:20	74.6	74.6	74.6	75	66.1	1	3	202	0.00	29.688 
07:25	74.6	74.6	74.6	76	66.5	0	1	202	0.00	29.688 
07:30	74.6	74.6	74.6	76	66.5	0	1	202	0.00	29.684 
07:35	74.6	74.6	74.6	77	66.9	0	2	202	0.00	29.684 
07:40	74.6	74.6	74.6	77	66.9	0	2	202	0.00	29.684 
07:45	74.7	74.7	74.7	78	67.4	0	2	202	0.00	29.686 
07:50	74.7	74.7	74.7	78	67.4	1	2	248	0.00	29.686 
07:55	74.7	74.7	74.7	78	67.4	0	2	248	0.00	29.686 
08:00	74.7	74.7	74.7	79	67.7	1	3	248	0.00	29.688 
08:05	74.7	74.7	74.7	79	67.7	0	2	248	0.00	29.688 
08:10	74.6	74.6	74.6	80	68.0	1	3	248	0.00	29.688 
08:15	74.7	74.7	74.7	80	68.1	1	3	248	0.00	29.699 
08:20	74.9	74.9	74.9	78	67.6	2	5	338	0.00	29.699 
08:25	75.1	75.1	76.1	77	67.4	2	5	315	0.00	29.699 
08:30	75.1	75.1	76.4	74	66.2	2	5	315	0.00	29.717 
08:35	74.9	74.9	74.9	70	64.4	3	6	315	0.00	29.717 
08:40	75.1	75.1	76.8	70	64.6	2	6	270	0.00	29.717 
08:45	75.3	75.3	77.1	68	64.0	2	5	292	0.00	29.720 
08:50	75.4	75.4	77.3	66	63.2	2	4	270	0.00	29.720 
08:55	75.6	75.6	77.6	63	62.1	2	5	315	0.00	29.720 
09:00	75.6	75.6	77.6	63	62.1	1	3	315	0.00	29.721 
09:05	75.6	75.6	77.7	61	61.2	2	4	315	0.00	29.721 
09:10	75.8	75.8	77.8	61	61.4	2	4	270	0.00	29.721 
09:15	75.8	75.8	77.8	61	61.4	2	6	292	0.00	29.721 
09:20	76.0	76.0	78.0	59	60.6	2	6	292	0.00	29.721 
09:25	76.1	76.1	78.1	58	60.2	2	4	292	0.00	29.721 
09:30	76.3	76.3	78.2	59	60.9	1	3	292	0.00	29.723 
09:35	76.5	76.5	78.4	58	60.6	1	4	292	0.00	29.723 
09:40	76.7	76.7	78.5	58	60.8	1	2	315	0.00	29.723 
09:45	76.7	76.7	78.5	55	59.3	2	4	292	0.00	29.723 
09:50	76.8	76.8	78.6	56	59.9	2	6	315	0.00	29.723 
09:55	77.0	77.0	78.7	54	59.1	1	4	292	0.00	29.723 
10:00	77.6	77.6	79.2	55	60.1	1	3	0	0.00	29.724 
10:05	77.9	77.9	79.4	56	60.9	1	3	315	0.00	29.724 
10:10	78.1	78.1	79.5	53	59.6	2	5	315	0.00	29.724 
10:15	77.9	77.9	79.3	53	59.4	2	5	315	0.00	29.725 
10:20	77.7	77.7	79.2	54	59.7	2	4	292	0.00	29.725 
10:25	78.1	78.1	79.5	55	60.6	1	3	315	0.00	29.725 
10:30	78.5	78.5	79.6	51	58.8	3	5	315	0.00	29.718 
10:35	78.5	78.5	79.6	50	58.3	3	7	270	0.00	29.718 
10:40	78.8	78.8	79.8	50	58.6	2	5	315	0.00	29.718 
10:45	79.2	79.2	80.1	50	58.9	1	3	315	0.00	29.719 
10:50	79.4	79.4	80.4	51	59.7	1	3	315	0.00	29.719 
10:55	79.6	79.6	80.5	51	59.9	2	4	315	0.00	29.719 
11:00	79.6	79.6	80.5	51	59.9	2	5	270	0.00	29.715 
11:05	79.9	79.9	80.6	49	59.0	3	5	270	0.00	29.715 
11:10	79.9	79.9	80.5	48	58.4	3	6	315	0.00	29.715 
11:15	79.6	79.6	80.4	49	58.7	3	5	315	0.00	29.719 
11:20	79.8	79.8	80.6	50	59.5	2	5	292	0.00	29.719 
11:25	80.1	80.1	80.9	50	59.8	2	5	292	0.00	29.719 
11:30	80.1	80.1	80.8	49	59.2	3	9	292	0.00	29.720 
11:35	80.3	80.3	81.1	50	59.9	2	6	315	0.00	29.720 
11:40	80.3	80.3	80.7	46	57.6	4	7	292	0.00	29.720 
11:45	80.7	80.7	80.9	45	57.4	3	6	270	0.00	29.711 
11:50	80.7	80.7	81.0	46	58.0	3	5	315	0.00	29.711 
11:55	81.2	81.2	81.1	43	56.5	3	7	270	0.00	29.711 
12:00	81.6	81.6	81.7	45	58.2	3	6	292	0.00	29.708 
12:05	81.6	81.6	81.6	44	57.5	3	6	292	0.00	29.708 
12:10	81.6	81.6	81.3	42	56.3	3	7	315	0.00	29.708 
12:15	81.4	81.4	81.3	43	56.7	4	7	270	0.00	29.710 
12:20	81.6	81.6	81.2	41	55.6	3	6	292	0.00	29.710 
12:25	81.8	81.8	81.1	38	53.7	3	9	315	0.00	29.710 
12:30	81.6	81.6	80.7	36	52.0	3	11	315	0.00	29.709 
12:35	81.8	81.8	80.7	34	50.7	4	9	270	0.00	29.709 
12:40	82.0	82.0	80.7	33	50.0	4	9	270	0.00	29.709 
12:45	82.0	82.0	80.8	34	50.8	3	7	292	0.00	29.717 
12:50	81.4	81.4	80.1	31	47.8	4	10	315	0.00	29.717 
12:55	81.8	81.8	80.3	29	46.4	4	6	270	0.00	29.717 
13:00	82.0	82.0	80.7	33	50.0	3	6	270	0.00	29.721 
13:05	82.0	82.0	80.4	29	46.6	5	7	270	0.00	29.721 
13:10	81.6	81.6	80.4	32	48.9	4	10	315	0.00	29.721 
13:15	81.4	81.4	80.2	32	48.7	3	10	315	0.00	29.718 
13:20	81.4	81.4	80.3	33	49.5	3	6	315	0.00	29.718 
13:25	81.6	81.6	80.5	33	49.7	3	5	270	0.00	29.718 
13:30	81.4	81.4	80.4	34	50.3	4	6	292	0.00	29.715 
13:35	81.1	81.1	80.0	32	48.4	4	6	270	0.00	29.715 
13:40	80.7	80.7	79.8	33	48.9	3	7	315	0.00	29.715 
13:45	81.2	81.2	80.2	33	49.3	2	5	315	0.00	29.715 
13:50	81.2	81.2	80.0	31	47.7	3	7	292	0.00	29.715 
13:55	81.1	81.1	79.9	31	47.6	3	9	292	0.00	29.715 
14:00	80.7	80.7	79.7	31	47.2	2	7	315	0.00	29.709 
14:05	80.7	80.7	79.9	34	49.7	2	7	315	0.00	29.709 
14:10	80.9	80.9	80.0	33	49.1	3	7	315	0.00	29.709 
14:15	80.9	80.9	80.1	34	49.9	3	6	315	0.00	29.706 
14:20	81.1	81.1	80.0	32	48.4	4	9	270	0.00	29.706 
14:25	80.5	80.5	79.7	33	48.7	4	7	270	0.00	29.706 
14:30	80.3	80.3	79.5	32	47.7	4	7	292	0.00	29.712 
14:35	80.1	80.1	79.3	31	46.7	4	10	292	0.00	29.712 
14:40	80.1	80.1	79.3	31	46.7	3	6	292	0.00	29.712 
14:45	80.1	80.1	79.3	31	46.7	3	8	315	0.00	29.713 
14:50	80.3	80.3	79.6	33	48.5	5	9	270	0.00	29.713 
14:55	80.1	80.1	79.4	32	47.6	4	11	315	0.00	29.713 
15:00	80.1	80.1	79.3	31	46.7	4	9	315	0.00	29.712 
15:05	80.3	80.3	79.7	35	50.1	2	5	270	0.00	29.712 
15:10	80.7	80.7	80.0	35	50.5	2	5	270	0.00	29.712 
15:15	80.1	80.1	79.5	33	48.4	4	7	315	0.00	29.711 
15:20	79.6	79.6	79.2	34	48.7	4	11	292	0.00	29.711 
15:25	79.6	79.6	79.2	34	48.7	4	10	270	0.00	29.711 
15:30	79.6	79.6	79.2	33	47.9	3	7	315	0.00	29.713 
15:35	79.8	79.8	79.2	32	47.3	2	5	315	0.00	29.713 
15:40	79.6	79.6	79.1	32	47.1	3	9	292	0.00	29.713 
15:45	79.9	79.9	79.3	32	47.4	2	6	270	0.00	29.712 
15:50	79.9	79.9	79.3	33	48.2	2	6	315	0.00	29.712 
15:55	79.9	79.9	79.4	34	49.0	2	5	315	0.00	29.712 
16:00	79.8	79.8	79.1	30	45.6	3	11	315	0.00	29.713 
16:05	79.9	79.9	79.3	32	47.4	3	7	292	0.00	29.713 
16:10	80.1	80.1	79.2	29	44.9	4	11	270	0.00	29.713 
16:15	80.1	80.1	79.3	31	46.7	2	7	315	0.00	29.712 
16:20	80.3	80.3	79.5	32	47.7	2	6	292	0.00	29.712 
16:25	80.3	80.3	79.4	31	46.9	3	6	315	0.00	29.712 
16:30	80.3	80.3	79.4	30	46.0	3	7	270	0.00	29.710 
16:35	80.1	80.1	79.2	30	45.8	3	7	315	0.00	29.710 
16:40	80.1	80.1	79.2	30	45.8	3	7	270	0.00	29.710 
16:45	80.3	80.3	79.4	31	46.9	3	9	292	0.00	29.709 
16:50	80.5	80.5	79.4	29	45.3	2	5	292	0.00	29.709 
16:55	80.3	80.3	79.2	28	44.2	3	11	292	0.00	29.709 
17:00	80.3	80.3	79.3	29	45.1	3	6	292	0.00	29.709 
17:05	80.5	80.5	79.4	28	44.4	2	7	315	0.00	29.709 
17:10	80.1	80.1	79.1	28	44.0	3	6	292	0.00	29.709 
17:15	80.1	80.1	79.2	29	44.9	3	7	315	0.00	29.703 
17:20	79.9	79.9	79.0	28	43.9	3	7	315	0.00	29.703 
17:25	80.1	80.1	79.2	29	44.9	3	6	338	0.00	29.703 
17:30	80.5	80.5	79.4	29	45.3	1	5	248	0.00	29.699 
17:35	80.7	80.7	79.6	30	46.4	1	4	292	0.00	29.699 
17:40	80.7	80.7	79.5	29	45.5	2	5	292	0.00	29.699 
17:45	80.7	80.7	79.5	28	44.5	3	7	270	0.00	29.695 
17:50	80.7	80.7	79.5	28	44.5	2	7	270	0.00	29.695 
17:55	80.5	80.5	79.4	28	44.4	3	7	292	0.00	29.695 
18:00	80.5	80.5	79.4	29	45.3	3	6	270	0.00	29.693 
18:05	80.5	80.5	79.4	28	44.4	3	7	315	0.00	29.693 
18:10	80.3	80.3	79.2	27	43.2	3	9	292	0.00	29.693 
18:15	80.3	80.3	79.4	30	46.0	3	11	270	0.00	29.685 
18:20	80.5	80.5	79.4	28	44.4	2	5	292	0.00	29.685 
18:25	80.7	80.7	79.7	31	47.2	1	5	270	0.00	29.685 
18:30	80.5	80.5	79.4	28	44.4	3	10	315	0.00	29.680 
18:35	80.3	80.3	79.3	29	45.1	3	6	292	0.00	29.680 
18:40	79.9	79.9	79.1	30	45.7	2	5	292	0.00	29.680 
18:45	79.9	79.9	79.1	30	45.7	3	6	270	0.00	29.679 
18:50	79.9	79.9	79.1	30	45.7	2	5	292	0.00	29.679 
18:55	79.9	79.9	79.1	30	45.7	3	6	270	0.00	29.679 
19:00	79.9	79.9	79.1	30	45.7	2	4	315	0.00	29.678 
19:05	79.9	79.9	79.2	31	46.5	2	6	315	0.00	29.678 
19:10	79.8	79.8	79.1	30	45.6	2	5	292	0.00	29.678 
19:15	79.8	79.8	79.1	31	46.5	2	5	270	0.00	29.677 
19:20	79.6	79.6	79.1	32	47.1	2	4	315	0.00	29.677 
19:25	79.6	79.6	79.1	32	47.1	2	5	292	0.00	29.677 
19:30	79.4	79.4	78.9	31	46.1	2	5	315	0.00	29.675 
19:35	79.2	79.2	78.8	31	45.9	2	5	292	0.00	29.675 
19:40	79.2	79.2	78.8	31	45.9	1	4	315	0.00	29.675 
19:45	79.2	79.2	78.8	31	45.9	1	5	270	0.00	29.672 
19:50	79.0	79.0	78.7	31	45.8	2	4	292	0.00	29.672 
19:55	78.8	78.8	78.6	32	46.4	1	4	292	0.00	29.672 
20:00	78.8	78.8	78.6	32	46.4	2	5	292	0.00	29.671 
20:05	78.6	78.6	78.7	34	47.9	2	5	248	0.00	29.671 
20:10	78.5	78.5	78.6	33	47.0	2	4	270	0.00	29.671 
20:15	78.1	78.1	78.4	34	47.4	1	5	270	0.00	29.671 
20:20	78.1	78.1	78.4	34	47.4	1	3	315	0.00	29.671 
20:25	77.9	77.9	78.4	35	48.0	1	4	270	0.00	29.671 
20:30	77.7	77.7	78.3	35	47.8	0	2	270	0.00	29.674 
20:35	77.4	77.4	78.3	37	49.1	0	2	270	0.00	29.674 
20:40	77.2	77.2	78.2	37	48.9	0	2	270	0.00	29.674 
20:45	77.0	77.0	78.0	36	48.0	0	3	270	0.00	29.674 
20:50	76.8	76.8	78.0	38	49.2	0	1	270	0.00	29.674 
20:55	76.5	76.5	77.9	38	49.0	0	2	270	0.00	29.674 
21:00	76.3	76.3	77.9	39	49.5	0	1	270	0.00	29.675 
21:05	76.0	76.0	77.8	40	49.9	0	0	---	0.00	29.675 
21:10	75.6	75.6	77.7	40	49.6	0	0	---	0.00	29.675 
21:15	75.3	75.3	77.6	41	50.0	0	0	---	0.00	29.671 
21:20	74.9	74.9	74.9	42	50.2	0	0	---	0.00	29.671 
21:25	74.4	74.4	74.4	43	50.4	0	0	---	0.00	29.671 
21:30	73.9	73.9	73.9	44	50.6	0	0	---	0.00	29.673 
21:35	73.3	73.3	73.3	44	50.1	0	0	---	0.00	29.673 
21:40	72.8	72.8	72.8	45	50.2	0	0	---	0.00	29.673 
21:45	72.5	72.5	72.5	46	50.5	0	0	---	0.00	29.673 
21:50	72.0	72.0	72.0	48	51.2	0	0	---	0.00	29.673 
21:55	71.5	71.5	71.5	49	51.3	0	0	---	0.00	29.673 
22:00	70.9	70.9	70.9	50	51.3	0	0	---	0.00	29.674 
22:05	70.4	70.4	70.4	51	51.4	0	0	---	0.00	29.674 
22:10	70.1	70.1	70.1	53	52.2	0	0	---	0.00	29.674 
22:15	69.6	69.6	69.6	53	51.7	0	0	---	0.00	29.671 
22:20	69.4	69.4	69.4	53	51.5	0	0	---	0.00	29.671 
22:25	69.3	69.3	69.3	54	51.9	0	0	---	0.00	29.671 
22:30	69.1	69.1	69.1	54	51.7	0	0	---	0.00	29.680 
22:35	69.1	69.1	69.1	55	52.2	0	0	---	0.00	29.680 
22:40	68.9	68.9	68.9	56	52.5	0	0	---	0.00	29.680 
22:45	68.9	68.9	68.9	56	52.5	0	0	---	0.00	29.682 
22:50	68.8	68.8	68.8	56	52.5	0	0	---	0.00	29.682 
22:55	68.6	68.6	68.6	57	52.7	0	0	---	0.00	29.682 
23:00	68.4	68.4	68.4	58	53.0	0	0	---	0.00	29.681 
23:05	68.4	68.4	68.4	58	53.0	0	0	---	0.00	29.681 
23:10	68.3	68.3	68.3	59	53.4	0	0	---	0.00	29.681 
23:15	68.3	68.3	68.3	58	52.9	0	0	---	0.00	29.674 
23:20	68.3	68.3	68.3	58	52.9	0	0	---	0.00	29.674 
23:25	68.3	68.3	68.3	57	52.5	0	0	---	0.00	29.674 
23:30	68.4	68.4	68.4	57	52.6	0	0	---	0.00	29.673 
23:35	68.8	68.8	68.8	56	52.5	0	0	---	0.00	29.673 
23:40	69.1	69.1	69.1	58	53.7	0	0	---	0.00	29.673 
23:45	69.4	69.4	69.4	56	53.0	0	0	---	0.00	29.669 
23:50	69.8	69.8	69.8	55	52.9	0	0	---	0.00	29.669 
23:55	70.3	70.3	70.3	54	52.9	0	1	292	0.00	29.669 

CoCoRaHS
IN-AL-39
A2 Web Hosting
Creative Commons License
GoDaddy
search engine by freefind advanced

loaded 2018-11-12 19:49:24 • last modified 2010-11-18 10:43:29
Privacy PolicyDisclaimer
• wx.awcolley.com is powered by PmWiki v.2002016 •
• all content (unless otherwise noted) © 2018 A W Colley